N511LL SCTB-SCVI
Flight info
| Callsign | N511LL |
|---|---|
| Flight time | N/A |
| Altitude | 21000 |
| Route | ANGOD UQ803 MUBIL |
| Aircraft | PC12/L-DFGLORWY/S |
Departure
| Time | 2026-05-05 22:06 |
|---|---|
| Airport | Eulogio Sánchez Airport (SCTB) |
Arrival
| Time | N/A |
|---|---|
| Airport | Villarrica Airport (SCVI) |
| Time | Latitude | Longitude | Altitude | Speed | Heading |
|---|---|---|---|---|---|
| 2026-05-05 21:49 | -33.45508 | -70.54941 | 2137 ft | 0 kts | 115° |
| 2026-05-05 22:00 | -33.45508 | -70.54940 | 2136 ft | 1 kts | 115° |
| 2026-05-05 22:00 | -33.45521 | -70.54908 | 2146 ft | 0 kts | 115° |
| 2026-05-05 22:00 | -33.45532 | -70.54874 | 2147 ft | 8 kts | 107° |
| 2026-05-05 22:01 | -33.45550 | -70.54793 | 2148 ft | 11 kts | 101° |
| 2026-05-05 22:01 | -33.45527 | -70.54739 | 2146 ft | 12 kts | 12° |
| 2026-05-05 22:01 | -33.45452 | -70.54715 | 2147 ft | 11 kts | 6° |
| 2026-05-05 22:01 | -33.45346 | -70.54689 | 2145 ft | 18 kts | 14° |
| 2026-05-05 22:02 | -33.45212 | -70.54649 | 2146 ft | 22 kts | 14° |
| 2026-05-05 22:02 | -33.45124 | -70.54601 | 2143 ft | 10 kts | 98° |
| 2026-05-05 22:02 | -33.45126 | -70.54584 | 2143 ft | 0 kts | 100° |
| 2026-05-05 22:04 | -33.45133 | -70.54542 | 2147 ft | 7 kts | 115° |
| 2026-05-05 22:05 | -33.45157 | -70.54537 | 2138 ft | 8 kts | 195° |
| 2026-05-05 22:05 | -33.45384 | -70.54602 | 2134 ft | 59 kts | 193° |
| 2026-05-05 22:05 | -33.45915 | -70.54737 | 2154 ft | 93 kts | 188° |
| 2026-05-05 22:05 | -33.46612 | -70.54905 | 2404 ft | 107 kts | 198° |
| 2026-05-05 22:06 | -33.47086 | -70.55080 | 2679 ft | 108 kts | 201° |
| 2026-05-05 22:06 | -33.48170 | -70.55518 | 3112 ft | 135 kts | 202° |
| 2026-05-05 22:06 | -33.49075 | -70.55944 | 3590 ft | 140 kts | 202° |
| 2026-05-05 22:06 | -33.49976 | -70.56441 | 3988 ft | 151 kts | 201° |
| 2026-05-05 22:07 | -33.50969 | -70.56886 | 4513 ft | 152 kts | 202° |
| 2026-05-05 22:07 | -33.51976 | -70.57319 | 5032 ft | 159 kts | 198° |
| 2026-05-05 22:07 | -33.53051 | -70.57695 | 5584 ft | 161 kts | 198° |
| 2026-05-05 22:07 | -33.53786 | -70.57922 | 6001 ft | 162 kts | 195° |
| 2026-05-05 22:08 | -33.55277 | -70.58320 | 6582 ft | 169 kts | 194° |
| 2026-05-05 22:08 | -33.56395 | -70.58611 | 7229 ft | 162 kts | 192° |
| 2026-05-05 22:08 | -33.57125 | -70.58782 | 7615 ft | 163 kts | 189° |
| 2026-05-05 22:08 | -33.58255 | -70.59018 | 8128 ft | 166 kts | 193° |
| 2026-05-05 22:09 | -33.59417 | -70.59300 | 8593 ft | 174 kts | 194° |
| 2026-05-05 22:09 | -33.60648 | -70.59617 | 9075 ft | 179 kts | 195° |
| 2026-05-05 22:09 | -33.61887 | -70.59966 | 9497 ft | 193 kts | 198° |
| 2026-05-05 22:09 | -33.63346 | -70.60342 | 9452 ft | 230 kts | 194° |
| 2026-05-05 22:10 | -33.64967 | -70.60774 | 9519 ft | 249 kts | 196° |
| 2026-05-05 22:10 | -33.66712 | -70.61219 | 9524 ft | 263 kts | 195° |
| 2026-05-05 22:10 | -33.68529 | -70.61664 | 9532 ft | 269 kts | 194° |
| 2026-05-05 22:10 | -33.70376 | -70.62115 | 9578 ft | 270 kts | 194° |
| 2026-05-05 22:11 | -33.72136 | -70.62550 | 10300 ft | 245 kts | 198° |
| 2026-05-05 22:11 | -33.73586 | -70.63311 | 11269 ft | 213 kts | 216° |
| 2026-05-05 22:11 | -33.74859 | -70.64104 | 12004 ft | 209 kts | 213° |
| 2026-05-05 22:11 | -33.76257 | -70.64836 | 12208 ft | 223 kts | 208° |
| 2026-05-05 22:12 | -33.77706 | -70.65508 | 12716 ft | 223 kts | 208° |
| 2026-05-05 22:12 | -33.79158 | -70.66198 | 13212 ft | 225 kts | 210° |
| 2026-05-05 22:12 | -33.80594 | -70.66896 | 13696 ft | 226 kts | 210° |
| 2026-05-05 22:12 | -33.82058 | -70.67606 | 14146 ft | 227 kts | 210° |
| 2026-05-05 22:13 | -33.83529 | -70.68318 | 14578 ft | 229 kts | 211° |
| 2026-05-05 22:13 | -33.85009 | -70.69034 | 15033 ft | 229 kts | 211° |
| 2026-05-05 22:13 | -33.86496 | -70.69753 | 15480 ft | 230 kts | 211° |
| 2026-05-05 22:13 | -33.87986 | -70.70475 | 15940 ft | 231 kts | 212° |
| 2026-05-05 22:14 | -33.89482 | -70.71199 | 16428 ft | 232 kts | 212° |
| 2026-05-05 22:14 | -33.90982 | -70.71927 | 16929 ft | 234 kts | 212° |
| 2026-05-05 22:14 | -33.92500 | -70.72664 | 17384 ft | 235 kts | 213° |
| 2026-05-05 22:14 | -33.94023 | -70.73402 | 17827 ft | 237 kts | 213° |
| 2026-05-05 22:15 | -33.95554 | -70.74144 | 18297 ft | 237 kts | 213° |
| 2026-05-05 22:15 | -33.97090 | -70.74889 | 18687 ft | 238 kts | 214° |
| 2026-05-05 22:15 | -33.98623 | -70.75634 | 19085 ft | 238 kts | 214° |
| 2026-05-05 22:15 | -34.00158 | -70.76380 | 19463 ft | 238 kts | 214° |
| 2026-05-05 22:16 | -34.01691 | -70.77124 | 19877 ft | 237 kts | 214° |
| 2026-05-05 22:16 | -34.03222 | -70.77869 | 20255 ft | 237 kts | 215° |
| 2026-05-05 22:16 | -34.04756 | -70.78616 | 20625 ft | 238 kts | 215° |
| 2026-05-05 22:16 | -34.06293 | -70.79364 | 20988 ft | 239 kts | 216° |
| 2026-05-05 22:17 | -34.07829 | -70.80110 | 21362 ft | 238 kts | 216° |
| 2026-05-05 22:17 | -34.09374 | -70.80865 | 21684 ft | 242 kts | 215° |
| 2026-05-05 22:17 | -34.10935 | -70.81625 | 22092 ft | 242 kts | 215° |
| 2026-05-05 22:17 | -34.12496 | -70.82383 | 22480 ft | 242 kts | 216° |
| 2026-05-05 22:18 | -34.14060 | -70.83146 | 22851 ft | 243 kts | 216° |
| 2026-05-05 22:18 | -34.15632 | -70.83914 | 23228 ft | 243 kts | 216° |
| 2026-05-05 22:18 | -34.17182 | -70.84670 | 23588 ft | 244 kts | 216° |
| 2026-05-05 22:18 | -34.18761 | -70.85441 | 23876 ft | 245 kts | 216° |
| 2026-05-05 22:19 | -34.20341 | -70.86213 | 24168 ft | 245 kts | 217° |
| 2026-05-05 22:19 | -34.21932 | -70.86992 | 24464 ft | 246 kts | 217° |
| 2026-05-05 22:19 | -34.23525 | -70.87769 | 24751 ft | 247 kts | 217° |
| 2026-05-05 22:19 | -34.25127 | -70.88554 | 24980 ft | 251 kts | 217° |
| 2026-05-05 22:20 | -34.26777 | -70.89371 | 25001 ft | 262 kts | 216° |
| 2026-05-05 22:20 | -34.28498 | -70.90216 | 25008 ft | 272 kts | 216° |
| 2026-05-05 22:20 | -34.30274 | -70.91079 | 25005 ft | 278 kts | 215° |
| 2026-05-05 22:20 | -34.32084 | -70.91961 | 25006 ft | 282 kts | 215° |
| 2026-05-05 22:21 | -34.33888 | -70.92844 | 25000 ft | 284 kts | 215° |
| 2026-05-05 22:21 | -34.35720 | -70.93741 | 24995 ft | 284 kts | 215° |
| 2026-05-05 22:21 | -34.37578 | -70.94650 | 25000 ft | 283 kts | 215° |
| 2026-05-05 22:21 | -34.39404 | -70.95544 | 25005 ft | 282 kts | 215° |
| 2026-05-05 22:22 | -34.41223 | -70.96439 | 25001 ft | 282 kts | 215° |
| 2026-05-05 22:22 | -34.43018 | -70.97321 | 24998 ft | 283 kts | 215° |
| 2026-05-05 22:22 | -34.44842 | -70.98218 | 24999 ft | 283 kts | 215° |
| 2026-05-05 22:22 | -34.46670 | -70.99116 | 24998 ft | 283 kts | 215° |
| 2026-05-05 22:23 | -34.48501 | -71.00016 | 25002 ft | 283 kts | 215° |
| 2026-05-05 22:23 | -34.50328 | -71.00915 | 25004 ft | 284 kts | 215° |
| 2026-05-05 22:23 | -34.52160 | -71.01818 | 25002 ft | 284 kts | 215° |
| 2026-05-05 22:23 | -34.53996 | -71.02722 | 25000 ft | 285 kts | 215° |
| 2026-05-05 22:24 | -34.55837 | -71.03628 | 24998 ft | 284 kts | 215° |
| 2026-05-05 22:24 | -34.57669 | -71.04531 | 25001 ft | 284 kts | 215° |
| 2026-05-05 22:24 | -34.59503 | -71.05437 | 25001 ft | 284 kts | 215° |
| 2026-05-05 22:24 | -34.61338 | -71.06342 | 25001 ft | 284 kts | 215° |
| 2026-05-05 22:25 | -34.63169 | -71.07245 | 25001 ft | 284 kts | 215° |
| 2026-05-05 22:25 | -34.64975 | -71.08137 | 24999 ft | 283 kts | 215° |
| 2026-05-05 22:25 | -34.66804 | -71.09042 | 24997 ft | 284 kts | 215° |
| 2026-05-05 22:25 | -34.68635 | -71.09948 | 24994 ft | 285 kts | 215° |
| 2026-05-05 22:26 | -34.70468 | -71.10854 | 24992 ft | 284 kts | 216° |
| 2026-05-05 22:26 | -34.72308 | -71.11739 | 24989 ft | 287 kts | 212° |
| 2026-05-05 22:26 | -34.74294 | -71.12329 | 24986 ft | 297 kts | 203° |
| 2026-05-05 22:26 | -34.76324 | -71.12803 | 24985 ft | 296 kts | 204° |
| 2026-05-05 22:27 | -34.78347 | -71.13302 | 24987 ft | 296 kts | 204° |
| 2026-05-05 22:27 | -34.80366 | -71.13800 | 24978 ft | 296 kts | 204° |
| 2026-05-05 22:27 | -34.82388 | -71.14288 | 24978 ft | 296 kts | 204° |
| 2026-05-05 22:27 | -34.84414 | -71.14777 | 24978 ft | 296 kts | 204° |
| 2026-05-05 22:28 | -34.86437 | -71.15269 | 24980 ft | 296 kts | 204° |
| 2026-05-05 22:28 | -34.88457 | -71.15762 | 24976 ft | 296 kts | 204° |
| 2026-05-05 22:28 | -34.90480 | -71.16253 | 24978 ft | 296 kts | 204° |
| 2026-05-05 22:28 | -34.92503 | -71.16746 | 24979 ft | 296 kts | 204° |
| 2026-05-05 22:29 | -34.94498 | -71.17232 | 24975 ft | 296 kts | 204° |
| 2026-05-05 22:29 | -34.96515 | -71.17723 | 24975 ft | 296 kts | 204° |
| 2026-05-05 22:29 | -34.98537 | -71.18216 | 24975 ft | 296 kts | 205° |
| 2026-05-05 22:29 | -35.00557 | -71.18708 | 24977 ft | 295 kts | 205° |
| 2026-05-05 22:30 | -35.02573 | -71.19200 | 24977 ft | 295 kts | 205° |
| 2026-05-05 22:30 | -35.04590 | -71.19693 | 24975 ft | 295 kts | 205° |
| 2026-05-05 22:30 | -35.06607 | -71.20185 | 24977 ft | 295 kts | 205° |
| 2026-05-05 22:30 | -35.08620 | -71.20677 | 24979 ft | 295 kts | 205° |
| 2026-05-05 22:31 | -35.10637 | -71.21170 | 24981 ft | 295 kts | 205° |
| 2026-05-05 22:31 | -35.12652 | -71.21663 | 24978 ft | 295 kts | 205° |
| 2026-05-05 22:31 | -35.14668 | -71.22157 | 24982 ft | 295 kts | 205° |
| 2026-05-05 22:31 | -35.16679 | -71.22649 | 24990 ft | 295 kts | 205° |
| 2026-05-05 22:32 | -35.18690 | -71.23142 | 24989 ft | 295 kts | 205° |
| 2026-05-05 22:32 | -35.20698 | -71.23634 | 24989 ft | 294 kts | 205° |
| 2026-05-05 22:32 | -35.22705 | -71.24126 | 24989 ft | 294 kts | 205° |
| 2026-05-05 22:32 | -35.24712 | -71.24618 | 24998 ft | 294 kts | 205° |
| 2026-05-05 22:33 | -35.26719 | -71.25111 | 24994 ft | 294 kts | 205° |
| 2026-05-05 22:33 | -35.28701 | -71.25598 | 24994 ft | 294 kts | 205° |
| 2026-05-05 22:33 | -35.30706 | -71.26091 | 24996 ft | 293 kts | 205° |
| 2026-05-05 22:33 | -35.32709 | -71.26583 | 24996 ft | 293 kts | 205° |
| 2026-05-05 22:34 | -35.34709 | -71.27075 | 24995 ft | 293 kts | 205° |
| 2026-05-05 22:34 | -35.36711 | -71.27568 | 24996 ft | 293 kts | 205° |
| 2026-05-05 22:34 | -35.38712 | -71.28061 | 25000 ft | 293 kts | 205° |
| 2026-05-05 22:34 | -35.40712 | -71.28553 | 24997 ft | 293 kts | 205° |
| 2026-05-05 22:35 | -35.42711 | -71.29046 | 24996 ft | 293 kts | 205° |
| 2026-05-05 22:35 | -35.44711 | -71.29539 | 24999 ft | 293 kts | 205° |
| 2026-05-05 22:35 | -35.46706 | -71.30031 | 24996 ft | 292 kts | 205° |
| 2026-05-05 22:35 | -35.48700 | -71.30523 | 24992 ft | 292 kts | 205° |
| 2026-05-05 22:36 | -35.50688 | -71.31014 | 24996 ft | 291 kts | 205° |
| 2026-05-05 22:36 | -35.52676 | -71.31506 | 24998 ft | 291 kts | 205° |
| 2026-05-05 22:36 | -35.54666 | -71.31998 | 25002 ft | 291 kts | 205° |
| 2026-05-05 22:36 | -35.56650 | -71.32489 | 25000 ft | 291 kts | 205° |
| 2026-05-05 22:37 | -35.58638 | -71.32982 | 24996 ft | 291 kts | 205° |
| 2026-05-05 22:37 | -35.60622 | -71.33474 | 24997 ft | 291 kts | 205° |
| 2026-05-05 22:37 | -35.62578 | -71.33960 | 25000 ft | 290 kts | 205° |
| 2026-05-05 22:37 | -35.64564 | -71.34452 | 24998 ft | 290 kts | 205° |
| 2026-05-05 22:38 | -35.66547 | -71.34946 | 24996 ft | 291 kts | 205° |
| 2026-05-05 22:38 | -35.68532 | -71.35440 | 24993 ft | 289 kts | 205° |
| 2026-05-05 22:38 | -35.70497 | -71.35925 | 24995 ft | 288 kts | 205° |
| 2026-05-05 22:38 | -35.72462 | -71.36415 | 24994 ft | 288 kts | 205° |
| 2026-05-05 22:39 | -35.74423 | -71.36905 | 24995 ft | 287 kts | 205° |
| 2026-05-05 22:39 | -35.76376 | -71.37391 | 24988 ft | 286 kts | 205° |
| 2026-05-05 22:39 | -35.78328 | -71.37877 | 24994 ft | 286 kts | 205° |
| 2026-05-05 22:39 | -35.80278 | -71.38363 | 24991 ft | 286 kts | 205° |
| 2026-05-05 22:40 | -35.82238 | -71.38854 | 24995 ft | 288 kts | 205° |
| 2026-05-05 22:40 | -35.84210 | -71.39347 | 24995 ft | 290 kts | 205° |
| 2026-05-05 22:40 | -35.86191 | -71.39840 | 24998 ft | 291 kts | 205° |
| 2026-05-05 22:40 | -35.88169 | -71.40333 | 25002 ft | 290 kts | 205° |
| 2026-05-05 22:41 | -35.90137 | -71.40823 | 25000 ft | 288 kts | 205° |
| 2026-05-05 22:41 | -35.92101 | -71.41314 | 24994 ft | 286 kts | 205° |
| 2026-05-05 22:41 | -35.94048 | -71.41802 | 24996 ft | 285 kts | 205° |
| 2026-05-05 22:41 | -35.95988 | -71.42288 | 24992 ft | 284 kts | 205° |
| 2026-05-05 22:42 | -35.97930 | -71.42776 | 24999 ft | 285 kts | 205° |
| 2026-05-05 22:42 | -35.99884 | -71.43267 | 24996 ft | 287 kts | 205° |
| 2026-05-05 22:42 | -36.01838 | -71.43755 | 24998 ft | 286 kts | 205° |
| 2026-05-05 22:42 | -36.03791 | -71.44243 | 24996 ft | 285 kts | 205° |
| 2026-05-05 22:43 | -36.05702 | -71.44723 | 24997 ft | 285 kts | 205° |
| 2026-05-05 22:43 | -36.07673 | -71.45219 | 24996 ft | 285 kts | 205° |
| 2026-05-05 22:43 | -36.09625 | -71.45711 | 24999 ft | 286 kts | 205° |
| 2026-05-05 22:43 | -36.11574 | -71.46199 | 24997 ft | 286 kts | 205° |
| 2026-05-05 22:44 | -36.13522 | -71.46689 | 24995 ft | 286 kts | 205° |
| 2026-05-05 22:44 | -36.15471 | -71.47178 | 24995 ft | 285 kts | 205° |
| 2026-05-05 22:44 | -36.17415 | -71.47668 | 24994 ft | 285 kts | 205° |
| 2026-05-05 22:44 | -36.19352 | -71.48156 | 24992 ft | 284 kts | 206° |
| 2026-05-05 22:45 | -36.21254 | -71.48633 | 24991 ft | 281 kts | 206° |
| 2026-05-05 22:45 | -36.23175 | -71.49121 | 24997 ft | 283 kts | 205° |
| 2026-05-05 22:45 | -36.25112 | -71.49611 | 24998 ft | 285 kts | 205° |
| 2026-05-05 22:45 | -36.27064 | -71.50101 | 24992 ft | 285 kts | 205° |
| 2026-05-05 22:46 | -36.29002 | -71.50589 | 24995 ft | 284 kts | 205° |
| 2026-05-05 22:46 | -36.30943 | -71.51079 | 24994 ft | 284 kts | 205° |
| 2026-05-05 22:46 | -36.32875 | -71.51568 | 24995 ft | 283 kts | 205° |
| 2026-05-05 22:46 | -36.34155 | -71.51893 | 24997 ft | 283 kts | 205° |
| 2026-05-05 22:47 | -36.36739 | -71.52546 | 24995 ft | 283 kts | 205° |
| 2026-05-05 22:47 | -36.38667 | -71.53034 | 24994 ft | 283 kts | 205° |
| 2026-05-05 22:47 | -36.39946 | -71.53357 | 24992 ft | 283 kts | 205° |
| 2026-05-05 22:47 | -36.42499 | -71.54005 | 24995 ft | 282 kts | 205° |
| 2026-05-05 22:48 | -36.44424 | -71.54493 | 24995 ft | 283 kts | 205° |
| 2026-05-05 22:48 | -36.45724 | -71.54823 | 24991 ft | 283 kts | 205° |
| 2026-05-05 22:48 | -36.47654 | -71.55313 | 24992 ft | 283 kts | 205° |
| 2026-05-05 22:48 | -36.49580 | -71.55800 | 24993 ft | 281 kts | 205° |
| 2026-05-05 22:49 | -36.51496 | -71.56286 | 24991 ft | 281 kts | 205° |
| 2026-05-05 22:49 | -36.53406 | -71.56772 | 24991 ft | 280 kts | 205° |
| 2026-05-05 22:49 | -36.55308 | -71.57255 | 24984 ft | 278 kts | 205° |
| 2026-05-05 22:49 | -36.57206 | -71.57738 | 24988 ft | 278 kts | 205° |
| 2026-05-05 22:50 | -36.59092 | -71.58217 | 24988 ft | 276 kts | 205° |
| 2026-05-05 22:50 | -36.60985 | -71.58703 | 24989 ft | 279 kts | 205° |
| 2026-05-05 22:50 | -36.62889 | -71.59189 | 24989 ft | 280 kts | 205° |
| 2026-05-05 22:50 | -36.64809 | -71.59677 | 24982 ft | 281 kts | 205° |
| 2026-05-05 22:51 | -36.66726 | -71.60163 | 24982 ft | 282 kts | 205° |
| 2026-05-05 22:51 | -36.68648 | -71.60654 | 24984 ft | 281 kts | 205° |
| 2026-05-05 22:51 | -36.70561 | -71.61142 | 24980 ft | 280 kts | 205° |
| 2026-05-05 22:51 | -36.72473 | -71.61629 | 24978 ft | 279 kts | 205° |
| 2026-05-05 22:52 | -36.74351 | -71.62111 | 24980 ft | 279 kts | 205° |
| 2026-05-05 22:52 | -36.76255 | -71.62598 | 24977 ft | 279 kts | 205° |
| 2026-05-05 22:52 | -36.78154 | -71.63082 | 24978 ft | 278 kts | 205° |
| 2026-05-05 22:52 | -36.80051 | -71.63568 | 24976 ft | 278 kts | 205° |
| 2026-05-05 22:53 | -36.81949 | -71.64055 | 24975 ft | 278 kts | 205° |
| 2026-05-05 22:53 | -36.83843 | -71.64540 | 24971 ft | 278 kts | 205° |
| 2026-05-05 22:53 | -36.85744 | -71.65027 | 24972 ft | 278 kts | 205° |
| 2026-05-05 22:53 | -36.87641 | -71.65513 | 24972 ft | 278 kts | 205° |
| 2026-05-05 22:54 | -36.89535 | -71.65998 | 24964 ft | 278 kts | 205° |
| 2026-05-05 22:54 | -36.91429 | -71.66486 | 24970 ft | 278 kts | 205° |
| 2026-05-05 22:54 | -36.93330 | -71.66976 | 24970 ft | 279 kts | 205° |
| 2026-05-05 22:54 | -36.95238 | -71.67464 | 24963 ft | 279 kts | 205° |
| 2026-05-05 22:55 | -36.97137 | -71.67949 | 24965 ft | 278 kts | 205° |
| 2026-05-05 22:55 | -36.99025 | -71.68436 | 24967 ft | 277 kts | 205° |
| 2026-05-05 22:55 | -37.00890 | -71.68919 | 24964 ft | 277 kts | 205° |
| 2026-05-05 22:55 | -37.02776 | -71.69403 | 24964 ft | 277 kts | 205° |
| 2026-05-05 22:56 | -37.04661 | -71.69887 | 24959 ft | 276 kts | 205° |
| 2026-05-05 22:56 | -37.06546 | -71.70373 | 24961 ft | 276 kts | 205° |
| 2026-05-05 22:56 | -37.08426 | -71.70859 | 24955 ft | 275 kts | 205° |
| 2026-05-05 22:56 | -37.10304 | -71.71343 | 24954 ft | 275 kts | 205° |
| 2026-05-05 22:57 | -37.12176 | -71.71826 | 24952 ft | 275 kts | 206° |
| 2026-05-05 22:57 | -37.14044 | -71.72309 | 24951 ft | 274 kts | 206° |
| 2026-05-05 22:57 | -37.15913 | -71.72792 | 24946 ft | 273 kts | 206° |
| 2026-05-05 22:57 | -37.17771 | -71.73271 | 24950 ft | 273 kts | 206° |
| 2026-05-05 22:58 | -37.19632 | -71.73754 | 24950 ft | 273 kts | 206° |
| 2026-05-05 22:58 | -37.21489 | -71.74233 | 24948 ft | 272 kts | 206° |
| 2026-05-05 22:58 | -37.23335 | -71.74709 | 24944 ft | 270 kts | 206° |
| 2026-05-05 22:58 | -37.25185 | -71.75193 | 24941 ft | 273 kts | 206° |
| 2026-05-05 22:59 | -37.27061 | -71.75683 | 24939 ft | 276 kts | 206° |
| 2026-05-05 22:59 | -37.28919 | -71.76160 | 24940 ft | 275 kts | 206° |
| 2026-05-05 22:59 | -37.30789 | -71.76641 | 24936 ft | 274 kts | 206° |
| 2026-05-05 22:59 | -37.32652 | -71.77126 | 24936 ft | 273 kts | 206° |
| 2026-05-05 23:00 | -37.36373 | -71.78095 | 24937 ft | 273 kts | 206° |
| 2026-05-05 23:00 | -37.38230 | -71.78577 | 24931 ft | 273 kts | 206° |
| 2026-05-05 23:00 | -37.40090 | -71.79061 | 24933 ft | 273 kts | 206° |
| 2026-05-05 23:01 | -37.41953 | -71.79545 | 24933 ft | 273 kts | 206° |
| 2026-05-05 23:01 | -37.43814 | -71.80030 | 24929 ft | 273 kts | 206° |
| 2026-05-05 23:01 | -37.45671 | -71.80514 | 24933 ft | 273 kts | 206° |
| 2026-05-05 23:01 | -37.47535 | -71.81000 | 24929 ft | 273 kts | 206° |
| 2026-05-05 23:02 | -37.49395 | -71.81485 | 24933 ft | 273 kts | 206° |
| 2026-05-05 23:02 | -37.51263 | -71.81972 | 24926 ft | 273 kts | 206° |
| 2026-05-05 23:02 | -37.53130 | -71.82459 | 24916 ft | 273 kts | 206° |
| 2026-05-05 23:02 | -37.54986 | -71.82942 | 24915 ft | 271 kts | 206° |
| 2026-05-05 23:03 | -37.56829 | -71.83423 | 24917 ft | 271 kts | 206° |
| 2026-05-05 23:03 | -37.58672 | -71.83906 | 24910 ft | 269 kts | 207° |
| 2026-05-05 23:03 | -37.60489 | -71.84383 | 24925 ft | 271 kts | 206° |
| 2026-05-05 23:03 | -37.62349 | -71.84872 | 24920 ft | 274 kts | 206° |
| 2026-05-05 23:04 | -37.64225 | -71.85362 | 24923 ft | 275 kts | 206° |
| 2026-05-05 23:04 | -37.66099 | -71.85850 | 24924 ft | 274 kts | 206° |
| 2026-05-05 23:04 | -37.67965 | -71.86338 | 24922 ft | 274 kts | 206° |
| 2026-05-05 23:04 | -37.69835 | -71.86830 | 24921 ft | 274 kts | 206° |
| 2026-05-05 23:05 | -37.71701 | -71.87322 | 24923 ft | 274 kts | 207° |
| 2026-05-05 23:05 | -37.73540 | -71.87884 | 24921 ft | 271 kts | 208° |
| 2026-05-05 23:05 | -37.75377 | -71.88462 | 24920 ft | 272 kts | 208° |
| 2026-05-05 23:05 | -37.77208 | -71.89031 | 24915 ft | 271 kts | 208° |
| 2026-05-05 23:06 | -37.79039 | -71.89598 | 24918 ft | 271 kts | 208° |
| 2026-05-05 23:06 | -37.80868 | -71.90168 | 24918 ft | 270 kts | 208° |
| 2026-05-05 23:06 | -37.82694 | -71.90738 | 24916 ft | 271 kts | 208° |
| 2026-05-05 23:06 | -37.84532 | -71.91313 | 24912 ft | 272 kts | 208° |
| 2026-05-05 23:07 | -37.86375 | -71.91888 | 24908 ft | 273 kts | 208° |
| 2026-05-05 23:07 | -37.88218 | -71.92460 | 24905 ft | 271 kts | 208° |
| 2026-05-05 23:07 | -37.90047 | -71.93030 | 24908 ft | 270 kts | 209° |
| 2026-05-05 23:07 | -37.91874 | -71.93602 | 24906 ft | 270 kts | 209° |
| 2026-05-05 23:08 | -37.93699 | -71.94173 | 24909 ft | 270 kts | 209° |
| 2026-05-05 23:08 | -37.95522 | -71.94743 | 24911 ft | 270 kts | 209° |
| 2026-05-05 23:08 | -37.97358 | -71.95320 | 24909 ft | 273 kts | 208° |
| 2026-05-05 23:08 | -37.99207 | -71.95900 | 24905 ft | 274 kts | 208° |
| 2026-05-05 23:09 | -38.01066 | -71.96479 | 24904 ft | 274 kts | 208° |
| 2026-05-05 23:09 | -38.02924 | -71.97061 | 24914 ft | 276 kts | 208° |
| 2026-05-05 23:09 | -38.04787 | -71.97645 | 24901 ft | 274 kts | 208° |
| 2026-05-05 23:09 | -38.06637 | -71.98223 | 24899 ft | 273 kts | 208° |
| 2026-05-05 23:10 | -38.08453 | -71.98793 | 24898 ft | 272 kts | 209° |
| 2026-05-05 23:10 | -38.10294 | -71.99375 | 24765 ft | 275 kts | 208° |
| 2026-05-05 23:10 | -38.12137 | -71.99951 | 24441 ft | 271 kts | 208° |
| 2026-05-05 23:10 | -38.13971 | -72.00529 | 24088 ft | 272 kts | 208° |
| 2026-05-05 23:11 | -38.15817 | -72.01113 | 23724 ft | 274 kts | 208° |
| 2026-05-05 23:11 | -38.17669 | -72.01695 | 23356 ft | 273 kts | 208° |
| 2026-05-05 23:11 | -38.19512 | -72.02271 | 22960 ft | 272 kts | 208° |
| 2026-05-05 23:11 | -38.21343 | -72.02846 | 22598 ft | 270 kts | 208° |
| 2026-05-05 23:12 | -38.23157 | -72.03420 | 22242 ft | 268 kts | 208° |
| 2026-05-05 23:12 | -38.24966 | -72.03993 | 21891 ft | 269 kts | 208° |
| 2026-05-05 23:12 | -38.26801 | -72.04578 | 21536 ft | 274 kts | 208° |
| 2026-05-05 23:12 | -38.28656 | -72.05162 | 21167 ft | 275 kts | 207° |
| 2026-05-05 23:13 | -38.30516 | -72.05744 | 20804 ft | 275 kts | 207° |
| 2026-05-05 23:13 | -38.32371 | -72.06329 | 20443 ft | 275 kts | 207° |
| 2026-05-05 23:13 | -38.34204 | -72.06911 | 20078 ft | 274 kts | 207° |
| 2026-05-05 23:13 | -38.36058 | -72.07497 | 19714 ft | 274 kts | 206° |
| 2026-05-05 23:14 | -38.37910 | -72.08084 | 19352 ft | 275 kts | 206° |
| 2026-05-05 23:14 | -38.39782 | -72.08679 | 18988 ft | 279 kts | 206° |
| 2026-05-05 23:14 | -38.41668 | -72.09276 | 18616 ft | 280 kts | 206° |
| 2026-05-05 23:14 | -38.43562 | -72.09874 | 18245 ft | 280 kts | 205° |
| 2026-05-05 23:15 | -38.45454 | -72.10473 | 17843 ft | 279 kts | 205° |
| 2026-05-05 23:15 | -38.47331 | -72.11067 | 17465 ft | 277 kts | 205° |
| 2026-05-05 23:15 | -38.49204 | -72.11663 | 17098 ft | 277 kts | 205° |
| 2026-05-05 23:15 | -38.51083 | -72.12263 | 16732 ft | 279 kts | 205° |
| 2026-05-05 23:16 | -38.52965 | -72.12862 | 16361 ft | 279 kts | 205° |
| 2026-05-05 23:16 | -38.54849 | -72.13461 | 15989 ft | 278 kts | 205° |
| 2026-05-05 23:16 | -38.56726 | -72.14059 | 15618 ft | 277 kts | 205° |
| 2026-05-05 23:16 | -38.58599 | -72.14657 | 15255 ft | 276 kts | 205° |
| 2026-05-05 23:17 | -38.60441 | -72.15245 | 14889 ft | 275 kts | 205° |
| 2026-05-05 23:17 | -38.62321 | -72.15844 | 14526 ft | 274 kts | 205° |
| 2026-05-05 23:17 | -38.64147 | -72.16428 | 14168 ft | 274 kts | 205° |
| 2026-05-05 23:17 | -38.65999 | -72.17021 | 13802 ft | 274 kts | 205° |
| 2026-05-05 23:18 | -38.67846 | -72.17612 | 13419 ft | 274 kts | 205° |
| 2026-05-05 23:18 | -38.69690 | -72.18202 | 13049 ft | 273 kts | 204° |
| 2026-05-05 23:18 | -38.71531 | -72.18791 | 12688 ft | 273 kts | 204° |
| 2026-05-05 23:18 | -38.73375 | -72.19382 | 12328 ft | 273 kts | 203° |
| 2026-05-05 23:19 | -38.75220 | -72.19974 | 11960 ft | 273 kts | 202° |
| 2026-05-05 23:19 | -38.77070 | -72.20567 | 11603 ft | 274 kts | 202° |
| 2026-05-05 23:19 | -38.78919 | -72.21160 | 11237 ft | 274 kts | 202° |
| 2026-05-05 23:19 | -38.80771 | -72.21755 | 10877 ft | 274 kts | 201° |
| 2026-05-05 23:20 | -38.82623 | -72.22349 | 10518 ft | 273 kts | 201° |
| 2026-05-05 23:20 | -38.84435 | -72.22929 | 10160 ft | 265 kts | 201° |
| 2026-05-05 23:20 | -38.86230 | -72.23506 | 9902 ft | 265 kts | 201° |
| 2026-05-05 23:20 | -38.88020 | -72.24085 | 9577 ft | 266 kts | 200° |
| 2026-05-05 23:21 | -38.89791 | -72.24656 | 9232 ft | 266 kts | 200° |
| 2026-05-05 23:21 | -38.91582 | -72.25231 | 8880 ft | 264 kts | 200° |
| 2026-05-05 23:21 | -38.93381 | -72.25811 | 8527 ft | 269 kts | 200° |
| 2026-05-05 23:22 | -38.95004 | -72.26334 | 8208 ft | 269 kts | 200° |
| 2026-05-05 23:22 | -38.96821 | -72.26917 | 7852 ft | 269 kts | 200° |
| 2026-05-05 23:22 | -38.98633 | -72.27500 | 7489 ft | 268 kts | 200° |
| 2026-05-05 23:23 | -39.00443 | -72.28084 | 7132 ft | 268 kts | 200° |
| 2026-05-05 23:23 | -39.02251 | -72.28667 | 6790 ft | 268 kts | 200° |
| 2026-05-05 23:23 | -39.04053 | -72.29248 | 6433 ft | 267 kts | 200° |
| 2026-05-05 23:23 | -39.05842 | -72.29823 | 6075 ft | 264 kts | 200° |
| 2026-05-05 23:24 | -39.07613 | -72.30396 | 5714 ft | 261 kts | 200° |
| 2026-05-05 23:24 | -39.09372 | -72.30965 | 5378 ft | 259 kts | 199° |
| 2026-05-05 23:24 | -39.11087 | -72.31518 | 5037 ft | 248 kts | 199° |
| 2026-05-05 23:24 | -39.12734 | -72.31841 | 4710 ft | 240 kts | 185° |
| 2026-05-05 23:25 | -39.14363 | -72.31600 | 4410 ft | 229 kts | 165° |
| 2026-05-05 23:25 | -39.15904 | -72.30889 | 4113 ft | 239 kts | 159° |
| 2026-05-05 23:25 | -39.17422 | -72.30107 | 3806 ft | 232 kts | 160° |
| 2026-05-05 23:25 | -39.18961 | -72.29330 | 3475 ft | 244 kts | 160° |
| 2026-05-05 23:26 | -39.20573 | -72.28514 | 3158 ft | 253 kts | 158° |
| 2026-05-05 23:26 | -39.22236 | -72.27672 | 2803 ft | 259 kts | 158° |
| 2026-05-05 23:26 | -39.23918 | -72.26812 | 2455 ft | 261 kts | 159° |
| 2026-05-05 23:26 | -39.25574 | -72.25974 | 2252 ft | 243 kts | 157° |
| 2026-05-05 23:27 | -39.27062 | -72.25247 | 2104 ft | 220 kts | 158° |
| 2026-05-05 23:27 | -39.28488 | -72.24563 | 1644 ft | 219 kts | 157° |
| 2026-05-05 23:27 | -39.29918 | -72.23898 | 1328 ft | 218 kts | 158° |
| 2026-05-05 23:27 | -39.31259 | -72.23312 | 1809 ft | 197 kts | 157° |
| 2026-05-05 23:28 | -39.32512 | -72.22549 | 2073 ft | 206 kts | 145° |
| 2026-05-05 23:28 | -39.33742 | -72.21730 | 2766 ft | 189 kts | 153° |
| 2026-05-05 23:28 | -39.34658 | -72.20650 | 3549 ft | 178 kts | 112° |
| 2026-05-05 23:28 | -39.34764 | -72.19075 | 3957 ft | 186 kts | 67° |
| 2026-05-05 23:29 | -39.34068 | -72.17603 | 3989 ft | 201 kts | 37° |
| 2026-05-05 23:29 | -39.32860 | -72.16611 | 4012 ft | 213 kts | 17° |
| 2026-05-05 23:29 | -39.31536 | -72.15692 | 3991 ft | 220 kts | 26° |
| 2026-05-05 23:29 | -39.30158 | -72.14794 | 3992 ft | 226 kts | 17° |
| 2026-05-05 23:30 | -39.29151 | -72.14456 | 3974 ft | 224 kts | 5° |
| 2026-05-05 23:30 | -39.27625 | -72.14353 | 3989 ft | 215 kts | 356° |
| 2026-05-05 23:30 | -39.26167 | -72.14705 | 3960 ft | 210 kts | 341° |
| 2026-05-05 23:30 | -39.24881 | -72.15439 | 3965 ft | 198 kts | 329° |
| 2026-05-05 23:31 | -39.23780 | -72.16486 | 3971 ft | 195 kts | 317° |
| 2026-05-05 23:31 | -39.22873 | -72.17773 | 3969 ft | 192 kts | 312° |
| 2026-05-05 23:31 | -39.21999 | -72.19092 | 3986 ft | 199 kts | 309° |
| 2026-05-05 23:31 | -39.21046 | -72.20526 | 3972 ft | 219 kts | 313° |
| 2026-05-05 23:32 | -39.20055 | -72.22008 | 3972 ft | 214 kts | 312° |
| 2026-05-05 23:32 | -39.19096 | -72.23449 | 3981 ft | 212 kts | 312° |
| 2026-05-05 23:32 | -39.18141 | -72.24965 | 3976 ft | 223 kts | 311° |
| 2026-05-05 23:32 | -39.17191 | -72.26510 | 3963 ft | 212 kts | 310° |
| 2026-05-05 23:33 | -39.16297 | -72.27946 | 3965 ft | 200 kts | 311° |
| 2026-05-05 23:33 | -39.15447 | -72.29326 | 3962 ft | 193 kts | 306° |
| 2026-05-05 23:33 | -39.15083 | -72.31007 | 3967 ft | 204 kts | 275° |
| 2026-05-05 23:33 | -39.15248 | -72.32854 | 3975 ft | 210 kts | 267° |
| 2026-05-05 23:34 | -39.15444 | -72.34719 | 3982 ft | 210 kts | 270° |
| 2026-05-05 23:34 | -39.15590 | -72.36596 | 3979 ft | 210 kts | 271° |
| 2026-05-05 23:34 | -39.15727 | -72.38474 | 3981 ft | 211 kts | 270° |
| 2026-05-05 23:34 | -39.15870 | -72.40352 | 3986 ft | 211 kts | 270° |
| 2026-05-05 23:35 | -39.16012 | -72.42206 | 3984 ft | 211 kts | 270° |
| 2026-05-05 23:35 | -39.16156 | -72.44085 | 3986 ft | 210 kts | 270° |
| 2026-05-05 23:35 | -39.16298 | -72.45961 | 3981 ft | 210 kts | 270° |
| 2026-05-05 23:35 | -39.16440 | -72.47829 | 3975 ft | 209 kts | 270° |
| 2026-05-05 23:36 | -39.16581 | -72.49693 | 3989 ft | 210 kts | 270° |
| 2026-05-05 23:36 | -39.16722 | -72.51592 | 3987 ft | 216 kts | 270° |
| 2026-05-05 23:36 | -39.16869 | -72.53567 | 3986 ft | 224 kts | 268° |
| 2026-05-05 23:36 | -39.17022 | -72.55579 | 3986 ft | 228 kts | 269° |
| 2026-05-05 23:37 | -39.17177 | -72.57608 | 3980 ft | 226 kts | 270° |
| 2026-05-05 23:37 | -39.17329 | -72.59632 | 3985 ft | 228 kts | 276° |
| 2026-05-05 23:37 | -39.17321 | -72.61591 | 3964 ft | 208 kts | 281° |
| 2026-05-05 23:37 | -39.17048 | -72.63357 | 3993 ft | 195 kts | 289° |
| 2026-05-05 23:38 | -39.16645 | -72.65002 | 3957 ft | 188 kts | 292° |
| 2026-05-05 23:38 | -39.16274 | -72.66555 | 3962 ft | 177 kts | 291° |
| 2026-05-05 23:38 | -39.15919 | -72.68045 | 3949 ft | 172 kts | 291° |
| 2026-05-05 23:38 | -39.15479 | -72.69449 | 3810 ft | 167 kts | 303° |
| 2026-05-05 23:39 | -39.14784 | -72.70630 | 3683 ft | 165 kts | 315° |
| 2026-05-05 23:39 | -39.13903 | -72.71538 | 3538 ft | 160 kts | 327° |
| 2026-05-05 23:39 | -39.12913 | -72.72124 | 3483 ft | 157 kts | 339° |
| 2026-05-05 23:39 | -39.11824 | -72.72395 | 3479 ft | 159 kts | 351° |
| 2026-05-05 23:40 | -39.10731 | -72.72301 | 3476 ft | 162 kts | 6° |
| 2026-05-05 23:40 | -39.09663 | -72.71782 | 3478 ft | 164 kts | 13° |
| 2026-05-05 23:40 | -39.08548 | -72.71438 | 3371 ft | 160 kts | 7° |
| 2026-05-05 23:40 | -39.07458 | -72.71055 | 3156 ft | 163 kts | 11° |
| 2026-05-05 23:41 | -39.06384 | -72.70637 | 2938 ft | 160 kts | 12° |
| 2026-05-05 23:41 | -39.05307 | -72.70208 | 2732 ft | 155 kts | 12° |
| 2026-05-05 23:41 | -39.04300 | -72.69805 | 2511 ft | 144 kts | 13° |
| 2026-05-05 23:41 | -39.03371 | -72.69434 | 2342 ft | 131 kts | 13° |
| 2026-05-05 23:42 | -39.02527 | -72.69099 | 2166 ft | 123 kts | 13° |
| 2026-05-05 23:42 | -39.01714 | -72.68778 | 2000 ft | 121 kts | 13° |
| 2026-05-05 23:42 | -39.00928 | -72.68467 | 1844 ft | 115 kts | 13° |
| 2026-05-05 23:42 | -39.00193 | -72.68175 | 1693 ft | 106 kts | 12° |
| 2026-05-05 23:43 | -38.99532 | -72.67915 | 1567 ft | 95 kts | 15° |
| 2026-05-05 23:43 | -38.98913 | -72.67671 | 1436 ft | 92 kts | 13° |
| 2026-05-05 23:43 | -38.98303 | -72.67432 | 1314 ft | 91 kts | 14° |
| 2026-05-05 23:43 | -38.97710 | -72.67196 | 1197 ft | 91 kts | 15° |
| 2026-05-05 23:44 | -38.97084 | -72.66949 | 1072 ft | 96 kts | 15° |
| 2026-05-05 23:44 | -38.96445 | -72.66690 | 946 ft | 96 kts | 16° |
| 2026-05-05 23:44 | -38.95801 | -72.66437 | 816 ft | 96 kts | 17° |
| 2026-05-05 23:44 | -38.95148 | -72.66175 | 686 ft | 100 kts | 17° |
| 2026-05-05 23:45 | -38.94480 | -72.65914 | 544 ft | 99 kts | 17° |
| 2026-05-05 23:45 | -38.93844 | -72.65652 | 373 ft | 94 kts | 18° |
| 2026-05-05 23:45 | -38.93242 | -72.65417 | 313 ft | 81 kts | 17° |
| 2026-05-05 23:45 | -38.92791 | -72.65240 | 312 ft | 56 kts | 18° |
| 2026-05-05 23:46 | -38.92453 | -72.65104 | 310 ft | 47 kts | 20° |
| 2026-05-05 23:46 | -38.92155 | -72.64986 | 310 ft | 40 kts | 18° |
| 2026-05-05 23:46 | -38.92063 | -72.64950 | 310 ft | 2 kts | 69° |
| 2026-05-05 23:46 | -38.92100 | -72.64964 | 310 ft | 13 kts | 196° |
| 2026-05-05 23:47 | -38.92170 | -72.64928 | 311 ft | 11 kts | 108° |
| 2026-05-05 23:47 | -38.92195 | -72.64824 | 310 ft | 16 kts | 103° |
| 2026-05-05 23:47 | -38.92224 | -72.64703 | 310 ft | 12 kts | 116° |
| 2026-05-05 23:47 | -38.92258 | -72.64598 | 310 ft | 11 kts | 138° |
| 2026-05-05 23:48 | -38.92287 | -72.64568 | 310 ft | 0 kts | 291° |